sensor_id;sensor_type;location;lat;lon;timestamp;P1;durP1;ratioP1;P2;durP2;ratioP2
17369;SDS011;8802;52.402;4.920;2024-02-21T00:01:26;13.50;;;2.90;;
17369;SDS011;8802;52.402;4.920;2024-02-21T00:03:53;12.68;;;2.67;;
17369;SDS011;8802;52.402;4.920;2024-02-21T00:06:20;10.52;;;2.50;;
17369;SDS011;8802;52.402;4.920;2024-02-21T00:08:47;14.75;;;3.15;;
17369;SDS011;8802;52.402;4.920;2024-02-21T00:11:14;17.73;;;3.60;;
17369;SDS011;8802;52.402;4.920;2024-02-21T00:13:42;11.18;;;2.65;;
17369;SDS011;8802;52.402;4.920;2024-02-21T00:16:09;12.27;;;3.58;;
17369;SDS011;8802;52.402;4.920;2024-02-21T00:18:36;13.40;;;2.72;;
17369;SDS011;8802;52.402;4.920;2024-02-21T00:21:03;18.20;;;2.83;;
17369;SDS011;8802;52.402;4.920;2024-02-21T00:23:30;14.20;;;3.05;;
17369;SDS011;8802;52.402;4.920;2024-02-21T00:25:57;16.23;;;3.17;;
17369;SDS011;8802;52.402;4.920;2024-02-21T00:28:24;10.90;;;2.65;;
17369;SDS011;8802;52.402;4.920;2024-02-21T00:30:52;13.98;;;3.08;;
17369;SDS011;8802;52.402;4.920;2024-02-21T00:33:19;15.35;;;3.38;;
17369;SDS011;8802;52.402;4.920;2024-02-21T00:35:46;14.25;;;3.00;;
17369;SDS011;8802;52.402;4.920;2024-02-21T00:38:13;12.52;;;2.97;;
17369;SDS011;8802;52.402;4.920;2024-02-21T00:40:40;16.92;;;3.42;;
17369;SDS011;8802;52.402;4.920;2024-02-21T00:43:07;10.90;;;2.60;;
17369;SDS011;8802;52.402;4.920;2024-02-21T00:45:33;15.60;;;3.22;;
17369;SDS011;8802;52.402;4.920;2024-02-21T00:48:01;14.65;;;3.25;;
17369;SDS011;8802;52.402;4.920;2024-02-21T00:50:28;17.80;;;3.03;;
17369;SDS011;8802;52.402;4.920;2024-02-21T00:52:55;13.02;;;3.28;;
17369;SDS011;8802;52.402;4.920;2024-02-21T00:55:22;12.32;;;2.95;;
17369;SDS011;8802;52.402;4.920;2024-02-21T00:57:49;15.38;;;2.80;;
17369;SDS011;8802;52.402;4.920;2024-02-21T01:00:16;10.05;;;2.53;;
17369;SDS011;8802;52.402;4.920;2024-02-21T01:02:44;13.13;;;2.13;;
17369;SDS011;8802;52.402;4.920;2024-02-21T01:05:12;9.30;;;3.30;;
17369;SDS011;8802;52.402;4.920;2024-02-21T01:07:39;12.80;;;2.40;;
17369;SDS011;8802;52.402;4.920;2024-02-21T01:10:06;13.30;;;3.22;;
17369;SDS011;8802;52.402;4.920;2024-02-21T01:12:34;10.77;;;2.78;;
17369;SDS011;8802;52.402;4.920;2024-02-21T01:15:01;14.93;;;2.72;;
17369;SDS011;8802;52.402;4.920;2024-02-21T01:17:27;12.68;;;3.28;;
17369;SDS011;8802;52.402;4.920;2024-02-21T01:19:54;20.65;;;3.10;;
17369;SDS011;8802;52.402;4.920;2024-02-21T01:22:22;14.38;;;2.97;;
17369;SDS011;8802;52.402;4.920;2024-02-21T01:24:49;18.25;;;3.60;;
17369;SDS011;8802;52.402;4.920;2024-02-21T01:27:16;13.40;;;3.33;;
17369;SDS011;8802;52.402;4.920;2024-02-21T01:29:43;15.75;;;3.35;;
17369;SDS011;8802;52.402;4.920;2024-02-21T01:32:11;14.93;;;3.08;;
17369;SDS011;8802;52.402;4.920;2024-02-21T01:34:38;15.80;;;2.80;;
17369;SDS011;8802;52.402;4.920;2024-02-21T01:37:05;15.60;;;3.45;;
17369;SDS011;8802;52.402;4.920;2024-02-21T01:39:34;16.85;;;3.40;;
17369;SDS011;8802;52.402;4.920;2024-02-21T01:42:01;20.75;;;3.38;;
17369;SDS011;8802;52.402;4.920;2024-02-21T01:44:27;16.30;;;2.97;;
17369;SDS011;8802;52.402;4.920;2024-02-21T01:46:54;18.17;;;3.25;;
17369;SDS011;8802;52.402;4.920;2024-02-21T01:49:21;16.45;;;3.08;;
17369;SDS011;8802;52.402;4.920;2024-02-21T01:51:48;13.32;;;2.85;;
17369;SDS011;8802;52.402;4.920;2024-02-21T01:54:16;16.17;;;3.78;;
17369;SDS011;8802;52.402;4.920;2024-02-21T01:56:46;15.50;;;3.42;;
17369;SDS011;8802;52.402;4.920;2024-02-21T01:59:13;11.10;;;2.92;;
17369;SDS011;8802;52.402;4.920;2024-02-21T02:01:42;15.63;;;3.17;;
17369;SDS011;8802;52.402;4.920;2024-02-21T02:04:10;14.30;;;2.95;;
17369;SDS011;8802;52.402;4.920;2024-02-21T02:06:37;15.85;;;3.28;;
17369;SDS011;8802;52.402;4.920;2024-02-21T02:09:04;15.68;;;3.65;;
17369;SDS011;8802;52.402;4.920;2024-02-21T02:11:31;14.60;;;3.03;;
17369;SDS011;8802;52.402;4.920;2024-02-21T02:14:00;18.08;;;3.47;;
17369;SDS011;8802;52.402;4.920;2024-02-21T02:16:26;20.80;;;3.45;;
17369;SDS011;8802;52.402;4.920;2024-02-21T02:18:53;17.63;;;3.17;;
17369;SDS011;8802;52.402;4.920;2024-02-21T02:21:23;12.50;;;3.30;;
17369;SDS011;8802;52.402;4.920;2024-02-21T02:23:56;19.40;;;3.65;;
17369;SDS011;8802;52.402;4.920;2024-02-21T02:26:23;12.88;;;3.33;;
17369;SDS011;8802;52.402;4.920;2024-02-21T02:28:50;17.67;;;3.55;;
17369;SDS011;8802;52.402;4.920;2024-02-21T02:31:17;17.05;;;3.80;;
17369;SDS011;8802;52.402;4.920;2024-02-21T02:33:44;16.63;;;3.58;;
17369;SDS011;8802;52.402;4.920;2024-02-21T02:36:10;14.35;;;3.17;;
17369;SDS011;8802;52.402;4.920;2024-02-21T02:38:37;17.33;;;3.22;;
17369;SDS011;8802;52.402;4.920;2024-02-21T02:41:05;20.10;;;3.80;;
17369;SDS011;8802;52.402;4.920;2024-02-21T02:43:32;20.27;;;3.95;;
17369;SDS011;8802;52.402;4.920;2024-02-21T02:45:59;14.70;;;3.60;;
17369;SDS011;8802;52.402;4.920;2024-02-21T02:48:26;19.55;;;4.07;;
17369;SDS011;8802;52.402;4.920;2024-02-21T02:50:52;16.40;;;3.58;;
17369;SDS011;8802;52.402;4.920;2024-02-21T02:53:19;16.55;;;3.88;;
17369;SDS011;8802;52.402;4.920;2024-02-21T02:55:46;17.77;;;3.50;;
17369;SDS011;8802;52.402;4.920;2024-02-21T02:58:14;16.13;;;3.70;;
17369;SDS011;8802;52.402;4.920;2024-02-21T03:00:41;15.43;;;3.22;;
17369;SDS011;8802;52.402;4.920;2024-02-21T03:03:08;14.85;;;3.42;;
17369;SDS011;8802;52.402;4.920;2024-02-21T03:05:35;15.88;;;3.65;;
17369;SDS011;8802;52.402;4.920;2024-02-21T03:08:01;14.98;;;3.28;;
17369;SDS011;8802;52.402;4.920;2024-02-21T03:10:32;15.95;;;3.35;;
17369;SDS011;8802;52.402;4.920;2024-02-21T03:12:59;17.92;;;3.55;;
17369;SDS011;8802;52.402;4.920;2024-02-21T03:15:27;20.15;;;3.90;;
17369;SDS011;8802;52.402;4.920;2024-02-21T03:17:54;17.55;;;3.28;;
17369;SDS011;8802;52.402;4.920;2024-02-21T03:20:21;17.67;;;3.97;;
17369;SDS011;8802;52.402;4.920;2024-02-21T03:22:48;18.65;;;3.20;;
17369;SDS011;8802;52.402;4.920;2024-02-21T03:25:15;16.30;;;3.10;;
17369;SDS011;8802;52.402;4.920;2024-02-21T03:27:42;18.00;;;3.50;;
17369;SDS011;8802;52.402;4.920;2024-02-21T03:30:09;20.67;;;3.38;;
17369;SDS011;8802;52.402;4.920;2024-02-21T03:32:38;13.48;;;3.28;;
17369;SDS011;8802;52.402;4.920;2024-02-21T03:35:05;16.90;;;2.92;;
17369;SDS011;8802;52.402;4.920;2024-02-21T03:37:33;19.52;;;4.07;;
17369;SDS011;8802;52.402;4.920;2024-02-21T03:39:59;15.38;;;3.25;;
17369;SDS011;8802;52.402;4.920;2024-02-21T03:42:27;17.52;;;3.88;;
17369;SDS011;8802;52.402;4.920;2024-02-21T03:44:55;16.15;;;3.88;;
17369;SDS011;8802;52.402;4.920;2024-02-21T03:47:22;19.77;;;4.03;;
17369;SDS011;8802;52.402;4.920;2024-02-21T03:49:50;21.20;;;3.75;;
17369;SDS011;8802;52.402;4.920;2024-02-21T03:52:17;14.93;;;3.22;;
17369;SDS011;8802;52.402;4.920;2024-02-21T03:54:44;12.95;;;3.58;;
17369;SDS011;8802;52.402;4.920;2024-02-21T03:57:10;22.60;;;3.63;;
17369;SDS011;8802;52.402;4.920;2024-02-21T03:59:37;14.02;;;3.22;;
17369;SDS011;8802;52.402;4.920;2024-02-21T04:02:05;16.80;;;3.47;;
17369;SDS011;8802;52.402;4.920;2024-02-21T04:04:33;16.95;;;3.38;;
17369;SDS011;8802;52.402;4.920;2024-02-21T04:07:01;16.67;;;3.53;;
17369;SDS011;8802;52.402;4.920;2024-02-21T04:09:31;13.88;;;3.47;;
17369;SDS011;8802;52.402;4.920;2024-02-21T04:11:58;17.23;;;3.20;;
17369;SDS011;8802;52.402;4.920;2024-02-21T04:14:25;15.23;;;4.05;;
17369;SDS011;8802;52.402;4.920;2024-02-21T04:16:52;14.90;;;3.33;;
17369;SDS011;8802;52.402;4.920;2024-02-21T04:19:19;13.82;;;3.05;;
17369;SDS011;8802;52.402;4.920;2024-02-21T04:21:46;21.40;;;4.00;;
17369;SDS011;8802;52.402;4.920;2024-02-21T04:24:14;17.02;;;3.65;;
17369;SDS011;8802;52.402;4.920;2024-02-21T04:26:41;14.65;;;2.97;;
17369;SDS011;8802;52.402;4.920;2024-02-21T04:29:08;12.82;;;2.83;;
17369;SDS011;8802;52.402;4.920;2024-02-21T04:31:35;10.30;;;2.72;;
17369;SDS011;8802;52.402;4.920;2024-02-21T04:34:02;16.73;;;3.20;;
17369;SDS011;8802;52.402;4.920;2024-02-21T04:36:29;16.42;;;2.70;;
17369;SDS011;8802;52.402;4.920;2024-02-21T04:38:56;11.30;;;3.00;;
17369;SDS011;8802;52.402;4.920;2024-02-21T04:41:24;18.13;;;3.20;;
17369;SDS011;8802;52.402;4.920;2024-02-21T04:43:51;9.57;;;2.78;;
17369;SDS011;8802;52.402;4.920;2024-02-21T04:46:18;12.30;;;3.40;;
17369;SDS011;8802;52.402;4.920;2024-02-21T04:48:44;19.25;;;4.28;;
17369;SDS011;8802;52.402;4.920;2024-02-21T04:51:11;11.70;;;3.25;;
17369;SDS011;8802;52.402;4.920;2024-02-21T04:53:38;13.80;;;2.70;;
17369;SDS011;8802;52.402;4.920;2024-02-21T04:56:06;12.82;;;3.03;;
17369;SDS011;8802;52.402;4.920;2024-02-21T04:58:37;9.90;;;2.72;;
17369;SDS011;8802;52.402;4.920;2024-02-21T05:01:04;14.52;;;3.03;;
17369;SDS011;8802;52.402;4.920;2024-02-21T05:03:31;13.15;;;3.10;;
17369;SDS011;8802;52.402;4.920;2024-02-21T05:05:58;13.68;;;3.10;;
17369;SDS011;8802;52.402;4.920;2024-02-21T05:08:25;7.35;;;2.50;;
17369;SDS011;8802;52.402;4.920;2024-02-21T05:10:52;14.73;;;3.00;;
17369;SDS011;8802;52.402;4.920;2024-02-21T05:13:19;12.98;;;3.13;;
17369;SDS011;8802;52.402;4.920;2024-02-21T05:15:47;13.48;;;2.80;;
17369;SDS011;8802;52.402;4.920;2024-02-21T05:18:14;16.52;;;2.97;;
17369;SDS011;8802;52.402;4.920;2024-02-21T05:20:41;16.35;;;3.15;;
17369;SDS011;8802;52.402;4.920;2024-02-21T05:23:08;10.77;;;3.00;;
17369;SDS011;8802;52.402;4.920;2024-02-21T05:25:35;18.13;;;3.45;;
17369;SDS011;8802;52.402;4.920;2024-02-21T05:28:01;10.05;;;3.50;;
17369;SDS011;8802;52.402;4.920;2024-02-21T05:30:31;12.43;;;3.08;;
17369;SDS011;8802;52.402;4.920;2024-02-21T05:32:59;14.50;;;3.72;;
17369;SDS011;8802;52.402;4.920;2024-02-21T05:35:29;10.48;;;3.38;;
17369;SDS011;8802;52.402;4.920;2024-02-21T05:37:56;10.95;;;4.53;;
17369;SDS011;8802;52.402;4.920;2024-02-21T05:40:24;12.75;;;4.15;;
17369;SDS011;8802;52.402;4.920;2024-02-21T05:42:51;9.07;;;3.75;;
17369;SDS011;8802;52.402;4.920;2024-02-21T05:45:18;8.25;;;3.65;;
17369;SDS011;8802;52.402;4.920;2024-02-21T05:47:45;11.63;;;4.25;;
17369;SDS011;8802;52.402;4.920;2024-02-21T05:50:13;15.25;;;4.32;;
17369;SDS011;8802;52.402;4.920;2024-02-21T05:52:40;14.10;;;4.30;;
17369;SDS011;8802;52.402;4.920;2024-02-21T05:55:07;11.23;;;4.95;;
17369;SDS011;8802;52.402;4.920;2024-02-21T05:57:34;9.00;;;3.97;;
17369;SDS011;8802;52.402;4.920;2024-02-21T06:00:03;11.90;;;3.70;;
17369;SDS011;8802;52.402;4.920;2024-02-21T06:02:33;14.43;;;4.75;;
17369;SDS011;8802;52.402;4.920;2024-02-21T06:05:00;10.70;;;4.38;;
17369;SDS011;8802;52.402;4.920;2024-02-21T06:07:28;12.18;;;4.53;;
17369;SDS011;8802;52.402;4.920;2024-02-21T06:09:55;15.52;;;4.93;;
17369;SDS011;8802;52.402;4.920;2024-02-21T06:12:22;13.90;;;5.82;;
17369;SDS011;8802;52.402;4.920;2024-02-21T06:14:49;13.45;;;5.40;;
17369;SDS011;8802;52.402;4.920;2024-02-21T06:17:16;12.52;;;5.70;;
17369;SDS011;8802;52.402;4.920;2024-02-21T06:19:43;13.68;;;6.50;;
17369;SDS011;8802;52.402;4.920;2024-02-21T06:22:10;17.70;;;6.70;;
17369;SDS011;8802;52.402;4.920;2024-02-21T06:24:38;10.45;;;6.05;;
17369;SDS011;8802;52.402;4.920;2024-02-21T06:27:05;14.48;;;7.07;;
17369;SDS011;8802;52.402;4.920;2024-02-21T06:29:32;11.18;;;7.60;;
17369;SDS011;8802;52.402;4.920;2024-02-21T06:32:00;13.02;;;8.00;;
17369;SDS011;8802;52.402;4.920;2024-02-21T06:34:27;13.98;;;9.32;;
17369;SDS011;8802;52.402;4.920;2024-02-21T06:36:54;14.30;;;9.65;;
17369;SDS011;8802;52.402;4.920;2024-02-21T06:39:21;17.23;;;11.25;;
17369;SDS011;8802;52.402;4.920;2024-02-21T06:41:49;18.27;;;10.38;;
17369;SDS011;8802;52.402;4.920;2024-02-21T06:44:18;11.35;;;10.10;;
17369;SDS011;8802;52.402;4.920;2024-02-21T06:46:44;13.23;;;10.90;;
17369;SDS011;8802;52.402;4.920;2024-02-21T06:49:11;18.75;;;11.05;;
17369;SDS011;8802;52.402;4.920;2024-02-21T06:51:40;12.55;;;11.00;;
17369;SDS011;8802;52.402;4.920;2024-02-21T06:54:07;11.43;;;10.18;;
17369;SDS011;8802;52.402;4.920;2024-02-21T06:56:35;18.88;;;10.48;;
17369;SDS011;8802;52.402;4.920;2024-02-21T06:59:04;13.70;;;9.48;;
17369;SDS011;8802;52.402;4.920;2024-02-21T07:01:31;14.85;;;9.05;;
17369;SDS011;8802;52.402;4.920;2024-02-21T07:03:57;14.43;;;10.13;;
17369;SDS011;8802;52.402;4.920;2024-02-21T07:06:24;14.68;;;10.27;;
17369;SDS011;8802;52.402;4.920;2024-02-21T07:08:51;10.50;;;9.32;;
17369;SDS011;8802;52.402;4.920;2024-02-21T07:11:18;13.35;;;10.00;;
17369;SDS011;8802;52.402;4.920;2024-02-21T07:13:45;12.02;;;10.32;;
17369;SDS011;8802;52.402;4.920;2024-02-21T07:16:13;16.27;;;10.82;;
17369;SDS011;8802;52.402;4.920;2024-02-21T07:18:40;12.07;;;10.82;;
17369;SDS011;8802;52.402;4.920;2024-02-21T07:21:06;13.98;;;10.70;;
17369;SDS011;8802;52.402;4.920;2024-02-21T07:23:33;13.52;;;11.23;;
17369;SDS011;8802;52.402;4.920;2024-02-21T07:26:00;12.48;;;11.18;;
17369;SDS011;8802;52.402;4.920;2024-02-21T07:28:28;18.77;;;12.35;;
17369;SDS011;8802;52.402;4.920;2024-02-21T07:30:54;16.25;;;12.73;;
17369;SDS011;8802;52.402;4.920;2024-02-21T07:33:23;14.55;;;12.20;;
17369;SDS011;8802;52.402;4.920;2024-02-21T07:35:49;14.90;;;12.48;;
17369;SDS011;8802;52.402;4.920;2024-02-21T07:38:16;16.20;;;12.48;;
17369;SDS011;8802;52.402;4.920;2024-02-21T07:40:44;15.68;;;11.95;;
17369;SDS011;8802;52.402;4.920;2024-02-21T07:43:10;15.27;;;13.07;;
17369;SDS011;8802;52.402;4.920;2024-02-21T07:45:37;16.85;;;13.50;;
17369;SDS011;8802;52.402;4.920;2024-02-21T07:48:05;17.55;;;13.10;;
17369;SDS011;8802;52.402;4.920;2024-02-21T07:50:33;14.70;;;13.15;;
17369;SDS011;8802;52.402;4.920;2024-02-21T07:53:00;14.40;;;12.90;;
17369;SDS011;8802;52.402;4.920;2024-02-21T07:55:27;15.48;;;13.50;;
17369;SDS011;8802;52.402;4.920;2024-02-21T07:57:54;15.38;;;13.73;;
17369;SDS011;8802;52.402;4.920;2024-02-21T08:00:21;15.00;;;13.50;;
17369;SDS011;8802;52.402;4.920;2024-02-21T08:02:48;15.55;;;13.95;;
17369;SDS011;8802;52.402;4.920;2024-02-21T08:05:15;17.75;;;14.30;;
17369;SDS011;8802;52.402;4.920;2024-02-21T08:07:43;15.68;;;12.15;;
17369;SDS011;8802;52.402;4.920;2024-02-21T08:10:10;16.00;;;12.95;;
17369;SDS011;8802;52.402;4.920;2024-02-21T08:12:38;15.40;;;12.20;;
17369;SDS011;8802;52.402;4.920;2024-02-21T08:15:05;14.93;;;13.02;;
17369;SDS011;8802;52.402;4.920;2024-02-21T08:17:33;20.58;;;13.13;;
17369;SDS011;8802;52.402;4.920;2024-02-21T08:20:00;14.93;;;12.65;;
17369;SDS011;8802;52.402;4.920;2024-02-21T08:22:27;14.23;;;12.73;;
17369;SDS011;8802;52.402;4.920;2024-02-21T08:24:56;14.43;;;12.93;;
17369;SDS011;8802;52.402;4.920;2024-02-21T08:27:23;17.83;;;12.80;;
17369;SDS011;8802;52.402;4.920;2024-02-21T08:29:50;16.58;;;12.50;;
17369;SDS011;8802;52.402;4.920;2024-02-21T08:32:17;14.80;;;13.38;;
17369;SDS011;8802;52.402;4.920;2024-02-21T08:34:44;17.48;;;12.52;;
17369;SDS011;8802;52.402;4.920;2024-02-21T08:37:10;15.57;;;12.43;;
17369;SDS011;8802;52.402;4.920;2024-02-21T08:39:37;15.82;;;11.93;;
17369;SDS011;8802;52.402;4.920;2024-02-21T08:42:06;15.02;;;11.27;;
17369;SDS011;8802;52.402;4.920;2024-02-21T08:44:33;17.73;;;13.52;;
17369;SDS011;8802;52.402;4.920;2024-02-21T08:46:59;17.38;;;12.82;;
17369;SDS011;8802;52.402;4.920;2024-02-21T08:49:28;14.95;;;13.35;;
17369;SDS011;8802;52.402;4.920;2024-02-21T08:51:56;17.50;;;12.57;;
17369;SDS011;8802;52.402;4.920;2024-02-21T08:54:23;14.77;;;12.73;;
17369;SDS011;8802;52.402;4.920;2024-02-21T08:56:50;15.25;;;12.90;;
17369;SDS011;8802;52.402;4.920;2024-02-21T08:59:18;15.55;;;14.00;;
17369;SDS011;8802;52.402;4.920;2024-02-21T09:01:45;17.52;;;12.95;;
17369;SDS011;8802;52.402;4.920;2024-02-21T09:04:12;14.63;;;12.93;;
17369;SDS011;8802;52.402;4.920;2024-02-21T09:06:39;15.27;;;12.85;;
17369;SDS011;8802;52.402;4.920;2024-02-21T09:09:07;16.23;;;13.25;;
17369;SDS011;8802;52.402;4.920;2024-02-21T09:11:34;17.00;;;13.75;;
17369;SDS011;8802;52.402;4.920;2024-02-21T09:14:02;17.42;;;13.63;;
17369;SDS011;8802;52.402;4.920;2024-02-21T09:16:31;15.18;;;13.52;;
17369;SDS011;8802;52.402;4.920;2024-02-21T09:18:58;15.38;;;13.77;;
17369;SDS011;8802;52.402;4.920;2024-02-21T09:21:25;13.77;;;12.02;;
17369;SDS011;8802;52.402;4.920;2024-02-21T09:23:53;16.42;;;12.93;;
17369;SDS011;8802;52.402;4.920;2024-02-21T09:26:20;15.73;;;12.55;;
17369;SDS011;8802;52.402;4.920;2024-02-21T09:28:46;14.60;;;12.80;;
17369;SDS011;8802;52.402;4.920;2024-02-21T09:31:14;14.07;;;12.63;;
17369;SDS011;8802;52.402;4.920;2024-02-21T09:33:42;14.15;;;12.75;;
17369;SDS011;8802;52.402;4.920;2024-02-21T09:36:09;14.50;;;12.73;;
17369;SDS011;8802;52.402;4.920;2024-02-21T09:38:35;16.60;;;12.93;;
17369;SDS011;8802;52.402;4.920;2024-02-21T09:41:04;15.57;;;13.38;;
17369;SDS011;8802;52.402;4.920;2024-02-21T09:43:43;16.80;;;13.55;;
17369;SDS011;8802;52.402;4.920;2024-02-21T09:46:12;14.05;;;12.48;;
17369;SDS011;8802;52.402;4.920;2024-02-21T09:48:45;19.38;;;13.52;;
17369;SDS011;8802;52.402;4.920;2024-02-21T09:51:24;18.30;;;13.20;;
17369;SDS011;8802;52.402;4.920;2024-02-21T09:53:56;15.13;;;12.65;;
17369;SDS011;8802;52.402;4.920;2024-02-21T09:56:23;14.43;;;12.90;;
17369;SDS011;8802;52.402;4.920;2024-02-21T09:58:50;17.42;;;13.60;;
17369;SDS011;8802;52.402;4.920;2024-02-21T10:01:17;17.27;;;15.32;;
17369;SDS011;8802;52.402;4.920;2024-02-21T10:03:45;17.23;;;14.27;;
17369;SDS011;8802;52.402;4.920;2024-02-21T10:06:13;16.38;;;13.15;;
17369;SDS011;8802;52.402;4.920;2024-02-21T10:08:39;16.25;;;14.25;;
17369;SDS011;8802;52.402;4.920;2024-02-21T10:11:06;14.98;;;13.32;;
17369;SDS011;8802;52.402;4.920;2024-02-21T10:13:34;15.88;;;14.00;;
17369;SDS011;8802;52.402;4.920;2024-02-21T10:16:03;16.92;;;14.27;;
17369;SDS011;8802;52.402;4.920;2024-02-21T10:18:31;18.33;;;14.38;;
17369;SDS011;8802;52.402;4.920;2024-02-21T10:21:03;15.57;;;13.98;;
17369;SDS011;8802;52.402;4.920;2024-02-21T10:23:41;15.88;;;14.27;;
17369;SDS011;8802;52.402;4.920;2024-02-21T10:26:08;16.75;;;15.15;;
17369;SDS011;8802;52.402;4.920;2024-02-21T10:28:37;15.73;;;14.18;;
17369;SDS011;8802;52.402;4.920;2024-02-21T10:31:07;18.52;;;14.70;;
17369;SDS011;8802;52.402;4.920;2024-02-21T10:33:35;18.85;;;14.93;;
17369;SDS011;8802;52.402;4.920;2024-02-21T10:36:10;17.17;;;13.95;;
17369;SDS011;8802;52.402;4.920;2024-02-21T10:38:37;15.75;;;14.05;;
17369;SDS011;8802;52.402;4.920;2024-02-21T10:41:05;16.50;;;13.38;;
17369;SDS011;8802;52.402;4.920;2024-02-21T10:43:33;14.38;;;12.93;;
17369;SDS011;8802;52.402;4.920;2024-02-21T10:46:06;13.45;;;12.13;;
17369;SDS011;8802;52.402;4.920;2024-02-21T10:48:37;16.70;;;12.65;;
17369;SDS011;8802;52.402;4.920;2024-02-21T10:51:17;14.10;;;12.52;;
17369;SDS011;8802;52.402;4.920;2024-02-21T10:53:46;15.25;;;12.13;;
17369;SDS011;8802;52.402;4.920;2024-02-21T10:56:22;13.15;;;11.85;;
17369;SDS011;8802;52.402;4.920;2024-02-21T10:58:52;13.07;;;11.50;;
17369;SDS011;8802;52.402;4.920;2024-02-21T11:01:20;12.98;;;10.98;;
17369;SDS011;8802;52.402;4.920;2024-02-21T11:03:48;13.65;;;11.70;;
17369;SDS011;8802;52.402;4.920;2024-02-21T11:06:21;14.27;;;10.60;;
17369;SDS011;8802;52.402;4.920;2024-02-21T11:08:58;11.65;;;10.43;;
17369;SDS011;8802;52.402;4.920;2024-02-21T11:11:28;12.27;;;11.07;;
17369;SDS011;8802;52.402;4.920;2024-02-21T11:14:03;13.48;;;11.02;;
17369;SDS011;8802;52.402;4.920;2024-02-21T11:16:34;13.70;;;10.15;;
17369;SDS011;8802;52.402;4.920;2024-02-21T11:19:04;16.17;;;10.60;;
17369;SDS011;8802;52.402;4.920;2024-02-21T11:21:34;11.68;;;10.23;;
17369;SDS011;8802;52.402;4.920;2024-02-21T11:24:01;10.77;;;9.68;;
17369;SDS011;8802;52.402;4.920;2024-02-21T11:26:28;12.43;;;8.68;;
17369;SDS011;8802;52.402;4.920;2024-02-21T11:28:56;9.93;;;8.93;;
17369;SDS011;8802;52.402;4.920;2024-02-21T11:31:24;11.68;;;10.50;;
17369;SDS011;8802;52.402;4.920;2024-02-21T11:33:52;10.07;;;9.10;;
17369;SDS011;8802;52.402;4.920;2024-02-21T11:36:23;12.57;;;9.90;;
17369;SDS011;8802;52.402;4.920;2024-02-21T11:38:52;10.55;;;9.50;;
17369;SDS011;8802;52.402;4.920;2024-02-21T11:41:19;10.93;;;9.88;;
17369;SDS011;8802;52.402;4.920;2024-02-21T11:43:46;10.90;;;9.52;;
17369;SDS011;8802;52.402;4.920;2024-02-21T11:46:14;11.00;;;9.82;;
17369;SDS011;8802;52.402;4.920;2024-02-21T11:48:41;11.48;;;10.02;;
17369;SDS011;8802;52.402;4.920;2024-02-21T11:51:09;10.40;;;9.50;;
17369;SDS011;8802;52.402;4.920;2024-02-21T11:53:36;10.77;;;9.77;;
17369;SDS011;8802;52.402;4.920;2024-02-21T11:56:05;10.98;;;9.93;;
17369;SDS011;8802;52.402;4.920;2024-02-21T11:58:32;11.50;;;9.40;;
17369;SDS011;8802;52.402;4.920;2024-02-21T12:00:59;11.00;;;9.55;;
17369;SDS011;8802;52.402;4.920;2024-02-21T12:03:27;9.60;;;8.82;;
17369;SDS011;8802;52.402;4.920;2024-02-21T12:05:54;10.30;;;9.30;;
17369;SDS011;8802;52.402;4.920;2024-02-21T12:08:23;11.30;;;10.18;;
17369;SDS011;8802;52.402;4.920;2024-02-21T12:10:50;10.52;;;9.50;;
17369;SDS011;8802;52.402;4.920;2024-02-21T12:13:18;10.90;;;9.27;;
17369;SDS011;8802;52.402;4.920;2024-02-21T12:15:49;10.13;;;9.32;;
17369;SDS011;8802;52.402;4.920;2024-02-21T12:18:16;10.15;;;9.27;;
17369;SDS011;8802;52.402;4.920;2024-02-21T12:20:43;10.63;;;9.70;;
17369;SDS011;8802;52.402;4.920;2024-02-21T12:23:11;10.38;;;9.30;;
17369;SDS011;8802;52.402;4.920;2024-02-21T12:25:38;10.07;;;9.00;;
17369;SDS011;8802;52.402;4.920;2024-02-21T12:28:05;10.05;;;8.93;;
17369;SDS011;8802;52.402;4.920;2024-02-21T12:30:34;10.30;;;9.30;;
17369;SDS011;8802;52.402;4.920;2024-02-21T12:33:04;9.65;;;8.65;;
17369;SDS011;8802;52.402;4.920;2024-02-21T12:35:31;9.90;;;9.02;;
17369;SDS011;8802;52.402;4.920;2024-02-21T12:37:59;10.07;;;9.20;;
17369;SDS011;8802;52.402;4.920;2024-02-21T12:40:26;11.00;;;9.90;;
17369;SDS011;8802;52.402;4.920;2024-02-21T12:42:57;10.43;;;9.35;;
17369;SDS011;8802;52.402;4.920;2024-02-21T12:45:24;10.63;;;9.68;;
17369;SDS011;8802;52.402;4.920;2024-02-21T12:47:53;11.52;;;10.52;;
17369;SDS011;8802;52.402;4.920;2024-02-21T12:50:19;10.80;;;9.82;;
17369;SDS011;8802;52.402;4.920;2024-02-21T12:52:47;9.90;;;8.90;;
17369;SDS011;8802;52.402;4.920;2024-02-21T12:55:14;11.02;;;9.73;;
17369;SDS011;8802;52.402;4.920;2024-02-21T12:57:42;9.60;;;8.70;;
17369;SDS011;8802;52.402;4.920;2024-02-21T13:00:09;10.00;;;8.43;;
17369;SDS011;8802;52.402;4.920;2024-02-21T13:02:36;9.95;;;8.75;;
17369;SDS011;8802;52.402;4.920;2024-02-21T13:05:05;9.32;;;8.43;;
17369;SDS011;8802;52.402;4.920;2024-02-21T13:07:32;8.77;;;7.97;;
17369;SDS011;8802;52.402;4.920;2024-02-21T13:09:59;9.52;;;8.02;;
17369;SDS011;8802;52.402;4.920;2024-02-21T13:12:26;8.38;;;7.68;;
17369;SDS011;8802;52.402;4.920;2024-02-21T13:14:55;9.27;;;7.97;;
17369;SDS011;8802;52.402;4.920;2024-02-21T13:17:22;10.02;;;8.32;;
17369;SDS011;8802;52.402;4.920;2024-02-21T13:19:49;9.13;;;8.23;;
17369;SDS011;8802;52.402;4.920;2024-02-21T13:22:17;10.55;;;7.70;;
17369;SDS011;8802;52.402;4.920;2024-02-21T13:24:47;9.35;;;8.05;;
17369;SDS011;8802;52.402;4.920;2024-02-21T13:27:14;9.57;;;7.85;;
17369;SDS011;8802;52.402;4.920;2024-02-21T13:29:41;8.80;;;8.05;;
17369;SDS011;8802;52.402;4.920;2024-02-21T13:32:07;9.93;;;7.63;;
17369;SDS011;8802;52.402;4.920;2024-02-21T13:34:34;7.93;;;7.18;;
17369;SDS011;8802;52.402;4.920;2024-02-21T13:37:01;9.05;;;8.02;;
17369;SDS011;8802;52.402;4.920;2024-02-21T13:39:31;8.27;;;7.53;;
17369;SDS011;8802;52.402;4.920;2024-02-21T13:41:59;8.05;;;7.22;;
17369;SDS011;8802;52.402;4.920;2024-02-21T13:44:26;8.65;;;7.88;;
17369;SDS011;8802;52.402;4.920;2024-02-21T13:46:53;9.02;;;8.23;;
17369;SDS011;8802;52.402;4.920;2024-02-21T13:49:20;12.23;;;9.43;;
17369;SDS011;8802;52.402;4.920;2024-02-21T13:51:47;11.15;;;9.20;;
17369;SDS011;8802;52.402;4.920;2024-02-21T13:54:14;12.30;;;9.18;;
17369;SDS011;8802;52.402;4.920;2024-02-21T13:56:45;10.38;;;8.00;;
17369;SDS011;8802;52.402;4.920;2024-02-21T13:59:12;9.63;;;8.73;;
17369;SDS011;8802;52.402;4.920;2024-02-21T14:01:39;10.75;;;8.82;;
17369;SDS011;8802;52.402;4.920;2024-02-21T14:04:06;9.13;;;7.70;;
17369;SDS011;8802;52.402;4.920;2024-02-21T14:06:33;11.02;;;8.32;;
17369;SDS011;8802;52.402;4.920;2024-02-21T14:09:00;9.13;;;6.88;;
17369;SDS011;8802;52.402;4.920;2024-02-21T14:11:28;7.97;;;6.82;;
17369;SDS011;8802;52.402;4.920;2024-02-21T14:13:56;8.43;;;7.13;;
17369;SDS011;8802;52.402;4.920;2024-02-21T14:16:23;8.50;;;7.60;;
17369;SDS011;8802;52.402;4.920;2024-02-21T14:18:51;8.35;;;7.43;;
17369;SDS011;8802;52.402;4.920;2024-02-21T14:21:19;8.45;;;6.65;;
17369;SDS011;8802;52.402;4.920;2024-02-21T14:23:46;7.57;;;6.32;;
17369;SDS011;8802;52.402;4.920;2024-02-21T14:26:12;9.02;;;5.95;;
17369;SDS011;8802;52.402;4.920;2024-02-21T14:28:40;7.78;;;5.88;;
17369;SDS011;8802;52.402;4.920;2024-02-21T14:31:09;7.65;;;5.18;;
17369;SDS011;8802;52.402;4.920;2024-02-21T14:33:35;6.53;;;4.82;;
17369;SDS011;8802;52.402;4.920;2024-02-21T14:36:03;5.65;;;5.07;;
17369;SDS011;8802;52.402;4.920;2024-02-21T14:38:30;5.97;;;4.95;;
17369;SDS011;8802;52.402;4.920;2024-02-21T14:40:57;6.32;;;4.80;;
17369;SDS011;8802;52.402;4.920;2024-02-21T14:43:24;8.05;;;4.78;;
17369;SDS011;8802;52.402;4.920;2024-02-21T14:45:51;7.47;;;4.95;;
17369;SDS011;8802;52.402;4.920;2024-02-21T14:48:20;8.13;;;5.38;;